sensor_id;sensor_type;location;lat;lon;timestamp;P1;durP1;ratioP1;P2;durP2;ratioP2
54909;SDS011;63189;51.240;9.964;2023-05-07T00:01:48;34.25;;;21.83;;
54909;SDS011;63189;51.240;9.964;2023-05-07T00:04:13;35.92;;;21.88;;
54909;SDS011;63189;51.240;9.964;2023-05-07T00:06:39;27.35;;;19.25;;
54909;SDS011;63189;51.240;9.964;2023-05-07T00:09:05;33.67;;;24.40;;
54909;SDS011;63189;51.240;9.964;2023-05-07T00:11:31;31.55;;;21.23;;
54909;SDS011;63189;51.240;9.964;2023-05-07T00:13:56;29.95;;;19.95;;
54909;SDS011;63189;51.240;9.964;2023-05-07T00:16:25;34.60;;;24.38;;
54909;SDS011;63189;51.240;9.964;2023-05-07T00:18:50;31.70;;;22.65;;
54909;SDS011;63189;51.240;9.964;2023-05-07T00:21:16;33.90;;;21.80;;
54909;SDS011;63189;51.240;9.964;2023-05-07T00:23:41;36.25;;;24.90;;
54909;SDS011;63189;51.240;9.964;2023-05-07T00:26:06;34.35;;;23.30;;
54909;SDS011;63189;51.240;9.964;2023-05-07T00:28:32;35.90;;;23.77;;
54909;SDS011;63189;51.240;9.964;2023-05-07T00:30:57;35.17;;;23.80;;
54909;SDS011;63189;51.240;9.964;2023-05-07T00:33:23;34.15;;;23.67;;
54909;SDS011;63189;51.240;9.964;2023-05-07T00:35:49;34.50;;;24.67;;
54909;SDS011;63189;51.240;9.964;2023-05-07T00:38:15;38.03;;;24.58;;
54909;SDS011;63189;51.240;9.964;2023-05-07T00:40:40;32.70;;;22.58;;
54909;SDS011;63189;51.240;9.964;2023-05-07T00:43:05;39.65;;;25.40;;
54909;SDS011;63189;51.240;9.964;2023-05-07T00:45:33;35.97;;;25.23;;
54909;SDS011;63189;51.240;9.964;2023-05-07T00:47:59;38.10;;;25.02;;
54909;SDS011;63189;51.240;9.964;2023-05-07T00:50:26;41.38;;;27.63;;
54909;SDS011;63189;51.240;9.964;2023-05-07T00:52:52;41.67;;;25.90;;
54909;SDS011;63189;51.240;9.964;2023-05-07T00:55:18;38.17;;;25.38;;
54909;SDS011;63189;51.240;9.964;2023-05-07T00:57:44;43.15;;;25.67;;
54909;SDS011;63189;51.240;9.964;2023-05-07T01:00:10;41.45;;;27.52;;
54909;SDS011;63189;51.240;9.964;2023-05-07T01:02:40;38.33;;;25.67;;
54909;SDS011;63189;51.240;9.964;2023-05-07T01:05:07;39.78;;;26.35;;
54909;SDS011;63189;51.240;9.964;2023-05-07T01:07:36;40.10;;;26.27;;
54909;SDS011;63189;51.240;9.964;2023-05-07T01:10:21;41.45;;;27.58;;
54909;SDS011;63189;51.240;9.964;2023-05-07T01:12:47;40.28;;;27.48;;
54909;SDS011;63189;51.240;9.964;2023-05-07T01:15:15;41.53;;;28.02;;
54909;SDS011;63189;51.240;9.964;2023-05-07T01:17:42;36.97;;;24.30;;
54909;SDS011;63189;51.240;9.964;2023-05-07T01:20:08;33.42;;;22.65;;
54909;SDS011;63189;51.240;9.964;2023-05-07T01:22:38;38.40;;;25.67;;
54909;SDS011;63189;51.240;9.964;2023-05-07T01:25:05;39.25;;;25.33;;
54909;SDS011;63189;51.240;9.964;2023-05-07T01:27:33;34.80;;;23.27;;
54909;SDS011;63189;51.240;9.964;2023-05-07T01:29:59;41.63;;;27.13;;
54909;SDS011;63189;51.240;9.964;2023-05-07T01:32:29;37.70;;;26.55;;
54909;SDS011;63189;51.240;9.964;2023-05-07T01:35:02;37.40;;;24.95;;
54909;SDS011;63189;51.240;9.964;2023-05-07T01:37:30;38.53;;;24.98;;
54909;SDS011;63189;51.240;9.964;2023-05-07T01:39:55;39.53;;;25.63;;
54909;SDS011;63189;51.240;9.964;2023-05-07T01:42:22;38.17;;;24.08;;
54909;SDS011;63189;51.240;9.964;2023-05-07T01:44:48;38.05;;;24.65;;
54909;SDS011;63189;51.240;9.964;2023-05-07T01:47:13;33.72;;;24.10;;
54909;SDS011;63189;51.240;9.964;2023-05-07T01:49:39;41.25;;;25.73;;
54909;SDS011;63189;51.240;9.964;2023-05-07T01:52:06;39.22;;;25.58;;
54909;SDS011;63189;51.240;9.964;2023-05-07T01:54:31;32.10;;;22.75;;
54909;SDS011;63189;51.240;9.964;2023-05-07T01:56:56;36.25;;;24.05;;
54909;SDS011;63189;51.240;9.964;2023-05-07T01:59:22;43.95;;;26.25;;
54909;SDS011;63189;51.240;9.964;2023-05-07T02:01:47;43.83;;;27.52;;
54909;SDS011;63189;51.240;9.964;2023-05-07T02:04:13;42.75;;;27.55;;
54909;SDS011;63189;51.240;9.964;2023-05-07T02:06:38;41.30;;;26.15;;
54909;SDS011;63189;51.240;9.964;2023-05-07T02:09:03;39.45;;;25.52;;
54909;SDS011;63189;51.240;9.964;2023-05-07T02:11:32;34.40;;;23.52;;
54909;SDS011;63189;51.240;9.964;2023-05-07T02:13:57;41.65;;;26.35;;
54909;SDS011;63189;51.240;9.964;2023-05-07T02:16:22;39.60;;;25.88;;
54909;SDS011;63189;51.240;9.964;2023-05-07T02:18:48;42.38;;;27.58;;
54909;SDS011;63189;51.240;9.964;2023-05-07T02:21:14;33.40;;;21.65;;
54909;SDS011;63189;51.240;9.964;2023-05-07T02:23:40;34.22;;;22.77;;
54909;SDS011;63189;51.240;9.964;2023-05-07T02:26:06;32.08;;;22.33;;
54909;SDS011;63189;51.240;9.964;2023-05-07T02:28:31;32.40;;;22.73;;
54909;SDS011;63189;51.240;9.964;2023-05-07T02:30:57;40.75;;;24.95;;
54909;SDS011;63189;51.240;9.964;2023-05-07T02:33:23;37.50;;;24.20;;
54909;SDS011;63189;51.240;9.964;2023-05-07T02:35:48;33.13;;;22.75;;
54909;SDS011;63189;51.240;9.964;2023-05-07T02:38:14;35.42;;;24.30;;
54909;SDS011;63189;51.240;9.964;2023-05-07T02:40:39;31.67;;;21.92;;
54909;SDS011;63189;51.240;9.964;2023-05-07T02:43:05;31.75;;;21.92;;
54909;SDS011;63189;51.240;9.964;2023-05-07T02:45:31;32.65;;;22.05;;
54909;SDS011;63189;51.240;9.964;2023-05-07T02:47:57;30.17;;;21.15;;
54909;SDS011;63189;51.240;9.964;2023-05-07T02:50:24;37.65;;;24.58;;
54909;SDS011;63189;51.240;9.964;2023-05-07T02:52:50;34.30;;;23.63;;
54909;SDS011;63189;51.240;9.964;2023-05-07T02:55:15;33.03;;;22.50;;
54909;SDS011;63189;51.240;9.964;2023-05-07T02:57:41;34.38;;;22.15;;
54909;SDS011;63189;51.240;9.964;2023-05-07T03:00:13;31.70;;;21.77;;
54909;SDS011;63189;51.240;9.964;2023-05-07T03:05:06;29.00;;;20.27;;
54909;SDS011;63189;51.240;9.964;2023-05-07T03:07:32;33.67;;;22.75;;
54909;SDS011;63189;51.240;9.964;2023-05-07T03:09:57;30.38;;;21.27;;
54909;SDS011;63189;51.240;9.964;2023-05-07T03:12:22;37.17;;;23.65;;
54909;SDS011;63189;51.240;9.964;2023-05-07T03:14:48;32.42;;;21.55;;
54909;SDS011;63189;51.240;9.964;2023-05-07T03:17:13;31.38;;;21.52;;
54909;SDS011;63189;51.240;9.964;2023-05-07T03:19:39;30.08;;;20.80;;
54909;SDS011;63189;51.240;9.964;2023-05-07T03:22:05;30.88;;;21.77;;
54909;SDS011;63189;51.240;9.964;2023-05-07T03:24:30;26.65;;;19.20;;
54909;SDS011;63189;51.240;9.964;2023-05-07T03:26:55;31.25;;;20.13;;
54909;SDS011;63189;51.240;9.964;2023-05-07T03:29:22;28.88;;;19.38;;
54909;SDS011;63189;51.240;9.964;2023-05-07T03:31:47;34.00;;;21.55;;
54909;SDS011;63189;51.240;9.964;2023-05-07T03:34:13;30.13;;;20.35;;
54909;SDS011;63189;51.240;9.964;2023-05-07T03:36:38;32.90;;;20.27;;
54909;SDS011;63189;51.240;9.964;2023-05-07T03:39:03;33.47;;;21.77;;
54909;SDS011;63189;51.240;9.964;2023-05-07T03:41:29;36.95;;;23.55;;
54909;SDS011;63189;51.240;9.964;2023-05-07T03:43:57;36.15;;;22.40;;
54909;SDS011;63189;51.240;9.964;2023-05-07T03:46:22;34.75;;;21.95;;
54909;SDS011;63189;51.240;9.964;2023-05-07T03:48:47;35.05;;;21.40;;
54909;SDS011;63189;51.240;9.964;2023-05-07T03:51:13;37.33;;;23.35;;
54909;SDS011;63189;51.240;9.964;2023-05-07T03:53:38;38.90;;;23.70;;
54909;SDS011;63189;51.240;9.964;2023-05-07T03:56:03;34.25;;;21.90;;
54909;SDS011;63189;51.240;9.964;2023-05-07T03:58:28;37.15;;;23.50;;
54909;SDS011;63189;51.240;9.964;2023-05-07T04:00:54;36.22;;;21.55;;
54909;SDS011;63189;51.240;9.964;2023-05-07T04:03:19;36.17;;;23.17;;
54909;SDS011;63189;51.240;9.964;2023-05-07T04:05:47;37.22;;;22.80;;
54909;SDS011;63189;51.240;9.964;2023-05-07T04:08:12;36.67;;;22.95;;
54909;SDS011;63189;51.240;9.964;2023-05-07T04:10:37;32.20;;;20.52;;
54909;SDS011;63189;51.240;9.964;2023-05-07T04:13:03;34.25;;;21.45;;
54909;SDS011;63189;51.240;9.964;2023-05-07T04:15:29;35.40;;;21.15;;
54909;SDS011;63189;51.240;9.964;2023-05-07T04:17:54;34.55;;;21.83;;
54909;SDS011;63189;51.240;9.964;2023-05-07T04:20:20;34.42;;;20.52;;
54909;SDS011;63189;51.240;9.964;2023-05-07T04:22:45;32.47;;;20.63;;
54909;SDS011;63189;51.240;9.964;2023-05-07T04:25:10;33.80;;;20.92;;
54909;SDS011;63189;51.240;9.964;2023-05-07T04:27:35;31.58;;;18.98;;
54909;SDS011;63189;51.240;9.964;2023-05-07T04:30:01;35.03;;;20.90;;
54909;SDS011;63189;51.240;9.964;2023-05-07T04:32:27;35.88;;;20.23;;
54909;SDS011;63189;51.240;9.964;2023-05-07T04:34:54;33.25;;;19.90;;
54909;SDS011;63189;51.240;9.964;2023-05-07T04:37:20;35.75;;;19.13;;
54909;SDS011;63189;51.240;9.964;2023-05-07T04:39:46;37.85;;;20.52;;
54909;SDS011;63189;51.240;9.964;2023-05-07T04:42:14;33.33;;;19.75;;
54909;SDS011;63189;51.240;9.964;2023-05-07T04:44:43;34.67;;;19.42;;
54909;SDS011;63189;51.240;9.964;2023-05-07T04:47:09;31.00;;;19.02;;
54909;SDS011;63189;51.240;9.964;2023-05-07T04:49:35;31.40;;;18.17;;
54909;SDS011;63189;51.240;9.964;2023-05-07T04:52:00;32.45;;;17.70;;
54909;SDS011;63189;51.240;9.964;2023-05-07T04:54:26;30.55;;;18.02;;
54909;SDS011;63189;51.240;9.964;2023-05-07T04:56:51;31.77;;;18.73;;
54909;SDS011;63189;51.240;9.964;2023-05-07T04:59:16;37.40;;;21.23;;
54909;SDS011;63189;51.240;9.964;2023-05-07T05:01:42;31.33;;;18.45;;
54909;SDS011;63189;51.240;9.964;2023-05-07T05:04:07;32.17;;;19.00;;
54909;SDS011;63189;51.240;9.964;2023-05-07T05:06:33;34.17;;;18.55;;
54909;SDS011;63189;51.240;9.964;2023-05-07T05:08:58;31.63;;;19.05;;
54909;SDS011;63189;51.240;9.964;2023-05-07T05:11:23;34.35;;;19.08;;
54909;SDS011;63189;51.240;9.964;2023-05-07T05:13:49;38.92;;;21.35;;
54909;SDS011;63189;51.240;9.964;2023-05-07T05:16:14;30.23;;;17.20;;
54909;SDS011;63189;51.240;9.964;2023-05-07T05:18:40;36.10;;;19.65;;
54909;SDS011;63189;51.240;9.964;2023-05-07T05:21:06;33.00;;;17.67;;
54909;SDS011;63189;51.240;9.964;2023-05-07T05:23:31;31.10;;;17.98;;
54909;SDS011;63189;51.240;9.964;2023-05-07T05:25:56;35.17;;;19.65;;
54909;SDS011;63189;51.240;9.964;2023-05-07T05:28:23;32.17;;;18.00;;
54909;SDS011;63189;51.240;9.964;2023-05-07T05:30:48;31.20;;;17.48;;
54909;SDS011;63189;51.240;9.964;2023-05-07T05:33:14;30.77;;;17.52;;
54909;SDS011;63189;51.240;9.964;2023-05-07T05:35:39;37.42;;;20.98;;
54909;SDS011;63189;51.240;9.964;2023-05-07T05:38:07;31.92;;;18.10;;
54909;SDS011;63189;51.240;9.964;2023-05-07T05:40:32;33.67;;;19.17;;
54909;SDS011;63189;51.240;9.964;2023-05-07T05:42:58;34.67;;;19.05;;
54909;SDS011;63189;51.240;9.964;2023-05-07T05:45:24;28.58;;;16.48;;
54909;SDS011;63189;51.240;9.964;2023-05-07T05:47:49;33.47;;;17.98;;
54909;SDS011;63189;51.240;9.964;2023-05-07T05:50:15;39.15;;;20.60;;
54909;SDS011;63189;51.240;9.964;2023-05-07T05:52:40;28.27;;;15.73;;
54909;SDS011;63189;51.240;9.964;2023-05-07T05:55:06;29.67;;;16.58;;
54909;SDS011;63189;51.240;9.964;2023-05-07T05:57:31;34.95;;;20.13;;
54909;SDS011;63189;51.240;9.964;2023-05-07T05:59:57;28.25;;;15.95;;
54909;SDS011;63189;51.240;9.964;2023-05-07T06:02:22;30.83;;;17.27;;
54909;SDS011;63189;51.240;9.964;2023-05-07T06:04:48;32.63;;;17.60;;
54909;SDS011;63189;51.240;9.964;2023-05-07T06:07:13;27.85;;;14.73;;
54909;SDS011;63189;51.240;9.964;2023-05-07T06:09:38;29.92;;;17.80;;
54909;SDS011;63189;51.240;9.964;2023-05-07T06:12:04;30.45;;;16.63;;
54909;SDS011;63189;51.240;9.964;2023-05-07T06:14:29;25.45;;;15.27;;
54909;SDS011;63189;51.240;9.964;2023-05-07T06:16:55;22.98;;;13.57;;
54909;SDS011;63189;51.240;9.964;2023-05-07T06:19:20;28.60;;;14.82;;
54909;SDS011;63189;51.240;9.964;2023-05-07T06:21:48;26.33;;;14.50;;
54909;SDS011;63189;51.240;9.964;2023-05-07T06:24:14;29.38;;;16.40;;
54909;SDS011;63189;51.240;9.964;2023-05-07T06:26:39;25.52;;;15.05;;
54909;SDS011;63189;51.240;9.964;2023-05-07T06:29:05;24.67;;;14.30;;
54909;SDS011;63189;51.240;9.964;2023-05-07T06:31:31;23.73;;;13.65;;
54909;SDS011;63189;51.240;9.964;2023-05-07T06:33:57;26.92;;;14.18;;
54909;SDS011;63189;51.240;9.964;2023-05-07T06:36:22;28.92;;;14.32;;
54909;SDS011;63189;51.240;9.964;2023-05-07T06:38:48;25.20;;;14.32;;
54909;SDS011;63189;51.240;9.964;2023-05-07T06:41:13;19.55;;;12.48;;
54909;SDS011;63189;51.240;9.964;2023-05-07T06:43:38;22.25;;;12.75;;
54909;SDS011;63189;51.240;9.964;2023-05-07T06:46:04;23.88;;;13.95;;
54909;SDS011;63189;51.240;9.964;2023-05-07T06:48:30;21.55;;;12.75;;
54909;SDS011;63189;51.240;9.964;2023-05-07T06:50:55;20.15;;;11.82;;
54909;SDS011;63189;51.240;9.964;2023-05-07T06:53:22;19.20;;;11.80;;
54909;SDS011;63189;51.240;9.964;2023-05-07T06:55:48;17.63;;;10.93;;
54909;SDS011;63189;51.240;9.964;2023-05-07T06:58:13;21.48;;;12.38;;
54909;SDS011;63189;51.240;9.964;2023-05-07T07:00:39;17.67;;;11.23;;
54909;SDS011;63189;51.240;9.964;2023-05-07T07:03:05;19.58;;;10.95;;
54909;SDS011;63189;51.240;9.964;2023-05-07T07:05:31;19.10;;;11.63;;
54909;SDS011;63189;51.240;9.964;2023-05-07T07:07:56;18.50;;;11.80;;
54909;SDS011;63189;51.240;9.964;2023-05-07T07:10:22;18.52;;;11.32;;
54909;SDS011;63189;51.240;9.964;2023-05-07T07:12:48;17.92;;;10.55;;
54909;SDS011;63189;51.240;9.964;2023-05-07T07:15:14;18.52;;;10.88;;
54909;SDS011;63189;51.240;9.964;2023-05-07T07:17:40;18.52;;;11.88;;
54909;SDS011;63189;51.240;9.964;2023-05-07T07:20:05;14.95;;;9.13;;
54909;SDS011;63189;51.240;9.964;2023-05-07T07:22:31;18.98;;;10.88;;
54909;SDS011;63189;51.240;9.964;2023-05-07T07:24:57;17.88;;;10.18;;
54909;SDS011;63189;51.240;9.964;2023-05-07T07:27:22;14.15;;;9.52;;
54909;SDS011;63189;51.240;9.964;2023-05-07T07:29:47;13.65;;;9.27;;
54909;SDS011;63189;51.240;9.964;2023-05-07T07:32:13;12.55;;;8.43;;
54909;SDS011;63189;51.240;9.964;2023-05-07T07:34:38;12.85;;;7.72;;
54909;SDS011;63189;51.240;9.964;2023-05-07T07:37:03;13.88;;;8.50;;
54909;SDS011;63189;51.240;9.964;2023-05-07T07:39:34;11.45;;;7.60;;
54909;SDS011;63189;51.240;9.964;2023-05-07T07:41:59;8.95;;;6.22;;
54909;SDS011;63189;51.240;9.964;2023-05-07T07:44:25;10.90;;;7.22;;
54909;SDS011;63189;51.240;9.964;2023-05-07T07:46:50;11.73;;;7.15;;
54909;SDS011;63189;51.240;9.964;2023-05-07T07:49:16;7.50;;;5.25;;
54909;SDS011;63189;51.240;9.964;2023-05-07T07:51:41;7.75;;;5.20;;
54909;SDS011;63189;51.240;9.964;2023-05-07T07:54:06;8.18;;;5.22;;
54909;SDS011;63189;51.240;9.964;2023-05-07T07:56:32;7.13;;;5.32;;
54909;SDS011;63189;51.240;9.964;2023-05-07T07:59:01;7.68;;;5.00;;
54909;SDS011;63189;51.240;9.964;2023-05-07T08:01:27;6.70;;;5.15;;
54909;SDS011;63189;51.240;9.964;2023-05-07T08:03:55;6.47;;;4.20;;
54909;SDS011;63189;51.240;9.964;2023-05-07T08:06:22;7.05;;;4.53;;
54909;SDS011;63189;51.240;9.964;2023-05-07T08:08:48;6.32;;;4.40;;
54909;SDS011;63189;51.240;9.964;2023-05-07T08:11:13;5.95;;;4.25;;
54909;SDS011;63189;51.240;9.964;2023-05-07T08:13:39;5.57;;;4.10;;
54909;SDS011;63189;51.240;9.964;2023-05-07T08:16:05;5.22;;;3.63;;
54909;SDS011;63189;51.240;9.964;2023-05-07T08:18:30;6.15;;;4.10;;
54909;SDS011;63189;51.240;9.964;2023-05-07T08:20:56;6.65;;;4.50;;
54909;SDS011;63189;51.240;9.964;2023-05-07T08:23:21;6.95;;;4.30;;
54909;SDS011;63189;51.240;9.964;2023-05-07T08:25:47;7.65;;;4.53;;
54909;SDS011;63189;51.240;9.964;2023-05-07T08:28:15;7.20;;;5.15;;
54909;SDS011;63189;51.240;9.964;2023-05-07T08:30:40;7.93;;;5.47;;
54909;SDS011;63189;51.240;9.964;2023-05-07T08:33:06;6.40;;;4.75;;
54909;SDS011;63189;51.240;9.964;2023-05-07T08:35:31;7.32;;;5.22;;
54909;SDS011;63189;51.240;9.964;2023-05-07T08:37:56;8.85;;;5.95;;
54909;SDS011;63189;51.240;9.964;2023-05-07T08:40:23;9.55;;;6.47;;
54909;SDS011;63189;51.240;9.964;2023-05-07T08:42:50;8.57;;;5.45;;
54909;SDS011;63189;51.240;9.964;2023-05-07T08:45:17;9.38;;;6.32;;
54909;SDS011;63189;51.240;9.964;2023-05-07T08:47:57;9.82;;;6.53;;
54909;SDS011;63189;51.240;9.964;2023-05-07T08:50:24;9.68;;;6.75;;
54909;SDS011;63189;51.240;9.964;2023-05-07T08:52:50;7.75;;;5.70;;
54909;SDS011;63189;51.240;9.964;2023-05-07T08:55:15;11.70;;;7.85;;
54909;SDS011;63189;51.240;9.964;2023-05-07T08:57:43;11.80;;;6.97;;
54909;SDS011;63189;51.240;9.964;2023-05-07T09:00:08;9.52;;;6.97;;
54909;SDS011;63189;51.240;9.964;2023-05-07T09:02:35;9.65;;;6.68;;
54909;SDS011;63189;51.240;9.964;2023-05-07T09:05:02;11.20;;;6.53;;
54909;SDS011;63189;51.240;9.964;2023-05-07T09:07:28;13.95;;;8.85;;
54909;SDS011;63189;51.240;9.964;2023-05-07T09:09:55;13.82;;;7.78;;
54909;SDS011;63189;51.240;9.964;2023-05-07T09:12:21;13.35;;;8.25;;
54909;SDS011;63189;51.240;9.964;2023-05-07T09:14:47;15.02;;;9.35;;
54909;SDS011;63189;51.240;9.964;2023-05-07T09:17:13;12.15;;;8.32;;
54909;SDS011;63189;51.240;9.964;2023-05-07T09:19:40;12.77;;;8.23;;
54909;SDS011;63189;51.240;9.964;2023-05-07T09:22:05;11.60;;;7.32;;
54909;SDS011;63189;51.240;9.964;2023-05-07T09:24:33;14.25;;;9.57;;
54909;SDS011;63189;51.240;9.964;2023-05-07T09:27:02;12.27;;;8.50;;
54909;SDS011;63189;51.240;9.964;2023-05-07T09:29:28;16.17;;;9.15;;
54909;SDS011;63189;51.240;9.964;2023-05-07T09:32:09;15.07;;;9.83;;
54909;SDS011;63189;51.240;9.964;2023-05-07T09:34:35;17.27;;;10.00;;
54909;SDS011;63189;51.240;9.964;2023-05-07T09:37:04;18.00;;;10.98;;
54909;SDS011;63189;51.240;9.964;2023-05-07T09:39:43;16.10;;;10.38;;
54909;SDS011;63189;51.240;9.964;2023-05-07T09:42:10;15.85;;;10.18;;
54909;SDS011;63189;51.240;9.964;2023-05-07T09:44:36;14.02;;;8.98;;
54909;SDS011;63189;51.240;9.964;2023-05-07T09:47:04;16.15;;;10.45;;
54909;SDS011;63189;51.240;9.964;2023-05-07T09:49:30;17.13;;;10.27;;
54909;SDS011;63189;51.240;9.964;2023-05-07T09:52:00;19.45;;;11.00;;
54909;SDS011;63189;51.240;9.964;2023-05-07T09:54:27;34.85;;;20.50;;
54909;SDS011;63189;51.240;9.964;2023-05-07T09:56:56;27.48;;;16.23;;
54909;SDS011;63189;51.240;9.964;2023-05-07T09:59:22;19.95;;;12.07;;
54909;SDS011;63189;51.240;9.964;2023-05-07T10:01:50;16.70;;;10.50;;
54909;SDS011;63189;51.240;9.964;2023-05-07T10:04:17;19.55;;;10.95;;
54909;SDS011;63189;51.240;9.964;2023-05-07T10:06:43;20.30;;;11.68;;
54909;SDS011;63189;51.240;9.964;2023-05-07T10:09:09;13.55;;;8.93;;
54909;SDS011;63189;51.240;9.964;2023-05-07T10:11:36;16.00;;;10.45;;
54909;SDS011;63189;51.240;9.964;2023-05-07T10:14:02;18.80;;;12.00;;
54909;SDS011;63189;51.240;9.964;2023-05-07T10:16:34;17.20;;;11.27;;
54909;SDS011;63189;51.240;9.964;2023-05-07T10:19:05;19.23;;;11.73;;
54909;SDS011;63189;51.240;9.964;2023-05-07T10:21:33;14.48;;;10.00;;
54909;SDS011;63189;51.240;9.964;2023-05-07T10:26:35;17.67;;;11.50;;
54909;SDS011;63189;51.240;9.964;2023-05-07T10:29:05;12.75;;;9.40;;
54909;SDS011;63189;51.240;9.964;2023-05-07T10:34:11;12.63;;;8.70;;
54909;SDS011;63189;51.240;9.964;2023-05-07T10:36:41;10.77;;;8.35;;
54909;SDS011;63189;51.240;9.964;2023-05-07T10:39:07;14.63;;;9.82;;
54909;SDS011;63189;51.240;9.964;2023-05-07T10:41:33;16.08;;;10.60;;
54909;SDS011;63189;51.240;9.964;2023-05-07T10:43:58;13.32;;;9.13;;
54909;SDS011;63189;51.240;9.964;2023-05-07T10:46:26;14.05;;;9.60;;
54909;SDS011;63189;51.240;9.964;2023-05-07T10:49:13;14.55;;;10.40;;
54909;SDS011;63189;51.240;9.964;2023-05-07T10:51:37;15.40;;;10.85;;
54909;SDS011;63189;51.240;9.964;2023-05-07T10:56:38;16.63;;;11.48;;
54909;SDS011;63189;51.240;9.964;2023-05-07T11:02:06;13.00;;;9.00;;
54909;SDS011;63189;51.240;9.964;2023-05-07T11:04:34;16.02;;;10.32;;
54909;SDS011;63189;51.240;9.964;2023-05-07T11:17:31;17.55;;;12.20;;
54909;SDS011;63189;51.240;9.964;2023-05-07T11:19:59;14.73;;;10.93;;
54909;SDS011;63189;51.240;9.964;2023-05-07T11:25:01;18.02;;;12.13;;
54909;SDS011;63189;51.240;9.964;2023-05-07T11:27:31;17.25;;;12.50;;
54909;SDS011;63189;51.240;9.964;2023-05-07T11:29:59;17.52;;;11.73;;
54909;SDS011;63189;51.240;9.964;2023-05-07T11:32:28;15.25;;;11.13;;
54909;SDS011;63189;51.240;9.964;2023-05-07T11:34:54;18.10;;;11.93;;
54909;SDS011;63189;51.240;9.964;2023-05-07T11:37:21;15.60;;;11.77;;
54909;SDS011;63189;51.240;9.964;2023-05-07T11:39:47;20.65;;;13.73;;
54909;SDS011;63189;51.240;9.964;2023-05-07T11:42:29;15.35;;;11.70;;
54909;SDS011;63189;51.240;9.964;2023-05-07T11:44:59;16.77;;;11.50;;
54909;SDS011;63189;51.240;9.964;2023-05-07T11:47:25;19.20;;;13.93;;
54909;SDS011;63189;51.240;9.964;2023-05-07T11:49:53;20.80;;;14.15;;
54909;SDS011;63189;51.240;9.964;2023-05-07T11:52:20;19.15;;;12.70;;
54909;SDS011;63189;51.240;9.964;2023-05-07T11:54:53;20.35;;;13.32;;
54909;SDS011;63189;51.240;9.964;2023-05-07T11:59:46;20.25;;;14.35;;
54909;SDS011;63189;51.240;9.964;2023-05-07T12:02:14;19.55;;;13.77;;
54909;SDS011;63189;51.240;9.964;2023-05-07T12:04:40;19.05;;;13.52;;
54909;SDS011;63189;51.240;9.964;2023-05-07T12:07:10;16.73;;;12.52;;
54909;SDS011;63189;51.240;9.964;2023-05-07T12:09:39;16.25;;;11.95;;
54909;SDS011;63189;51.240;9.964;2023-05-07T12:12:08;18.20;;;13.02;;
54909;SDS011;63189;51.240;9.964;2023-05-07T12:14:37;15.90;;;12.32;;
54909;SDS011;63189;51.240;9.964;2023-05-07T12:17:04;19.40;;;13.73;;
54909;SDS011;63189;51.240;9.964;2023-05-07T12:19:30;14.77;;;11.68;;
54909;SDS011;63189;51.240;9.964;2023-05-07T12:21:56;13.48;;;9.95;;
54909;SDS011;63189;51.240;9.964;2023-05-07T12:24:22;16.30;;;12.30;;
54909;SDS011;63189;51.240;9.964;2023-05-07T12:26:48;14.65;;;11.52;;
54909;SDS011;63189;51.240;9.964;2023-05-07T12:29:14;15.60;;;11.40;;
54909;SDS011;63189;51.240;9.964;2023-05-07T12:31:42;14.68;;;11.45;;
54909;SDS011;63189;51.240;9.964;2023-05-07T12:34:08;18.15;;;13.15;;
54909;SDS011;63189;51.240;9.964;2023-05-07T12:36:38;13.77;;;11.23;;
54909;SDS011;63189;51.240;9.964;2023-05-07T12:39:07;17.10;;;12.15;;
54909;SDS011;63189;51.240;9.964;2023-05-07T12:41:51;13.65;;;10.57;;
54909;SDS011;63189;51.240;9.964;2023-05-07T12:44:24;16.90;;;13.43;;
54909;SDS011;63189;51.240;9.964;2023-05-07T12:46:53;18.57;;;12.97;;
54909;SDS011;63189;51.240;9.964;2023-05-07T12:49:19;15.27;;;11.60;;
54909;SDS011;63189;51.240;9.964;2023-05-07T12:51:46;15.75;;;11.52;;
54909;SDS011;63189;51.240;9.964;2023-05-07T12:54:13;14.68;;;10.38;;
54909;SDS011;63189;51.240;9.964;2023-05-07T12:56:59;15.38;;;11.25;;
54909;SDS011;63189;51.240;9.964;2023-05-07T12:59:33;16.27;;;11.50;;
54909;SDS011;63189;51.240;9.964;2023-05-07T13:01:59;19.63;;;12.43;;
54909;SDS011;63189;51.240;9.964;2023-05-07T13:04:25;13.43;;;10.38;;
54909;SDS011;63189;51.240;9.964;2023-05-07T13:06:51;14.13;;;10.98;;
54909;SDS011;63189;51.240;9.964;2023-05-07T13:09:16;15.93;;;10.80;;
54909;SDS011;63189;51.240;9.964;2023-05-07T13:11:41;14.98;;;10.57;;
54909;SDS011;63189;51.240;9.964;2023-05-07T13:14:07;15.35;;;11.27;;
54909;SDS011;63189;51.240;9.964;2023-05-07T13:16:33;12.60;;;9.85;;
54909;SDS011;63189;51.240;9.964;2023-05-07T13:18:58;15.02;;;11.15;;
54909;SDS011;63189;51.240;9.964;2023-05-07T13:21:23;16.77;;;10.60;;
54909;SDS011;63189;51.240;9.964;2023-05-07T13:23:49;15.20;;;9.55;;
54909;SDS011;63189;51.240;9.964;2023-05-07T13:26:14;14.48;;;10.35;;
54909;SDS011;63189;51.240;9.964;2023-05-07T13:28:41;13.82;;;10.18;;
54909;SDS011;63189;51.240;9.964;2023-05-07T13:31:06;11.82;;;8.10;;
54909;SDS011;63189;51.240;9.964;2023-05-07T13:33:32;14.55;;;9.43;;
54909;SDS011;63189;51.240;9.964;2023-05-07T13:35:57;15.80;;;10.35;;
54909;SDS011;63189;51.240;9.964;2023-05-07T13:38:22;14.00;;;10.52;;
54909;SDS011;63189;51.240;9.964;2023-05-07T13:40:48;16.75;;;12.23;;
54909;SDS011;63189;51.240;9.964;2023-05-07T13:43:13;15.25;;;12.02;;
54909;SDS011;63189;51.240;9.964;2023-05-07T13:45:39;16.92;;;12.27;;
54909;SDS011;63189;51.240;9.964;2023-05-07T13:48:05;14.82;;;11.35;;
54909;SDS011;63189;51.240;9.964;2023-05-07T13:50:30;13.15;;;10.65;;
54909;SDS011;63189;51.240;9.964;2023-05-07T13:52:56;17.92;;;13.35;;
54909;SDS011;63189;51.240;9.964;2023-05-07T13:55:21;16.15;;;12.98;;
54909;SDS011;63189;51.240;9.964;2023-05-07T13:57:53;15.82;;;12.55;;
54909;SDS011;63189;51.240;9.964;2023-05-07T14:00:21;18.70;;;13.23;;
54909;SDS011;63189;51.240;9.964;2023-05-07T14:02:46;17.80;;;13.60;;
54909;SDS011;63189;51.240;9.964;2023-05-07T14:05:11;15.70;;;12.68;;
54909;SDS011;63189;51.240;9.964;2023-05-07T14:07:38;17.08;;;13.05;;
54909;SDS011;63189;51.240;9.964;2023-05-07T14:10:03;14.95;;;10.85;;
54909;SDS011;63189;51.240;9.964;2023-05-07T14:12:29;15.00;;;11.63;;
54909;SDS011;63189;51.240;9.964;2023-05-07T14:14:56;14.38;;;11.45;;
54909;SDS011;63189;51.240;9.964;2023-05-07T14:17:21;16.02;;;12.07;;
54909;SDS011;63189;51.240;9.964;2023-05-07T14:19:48;14.82;;;10.57;;
54909;SDS011;63189;51.240;9.964;2023-05-07T14:22:13;13.65;;;11.23;;
54909;SDS011;63189;51.240;9.964;2023-05-07T14:24:40;16.02;;;11.50;;
54909;SDS011;63189;51.240;9.964;2023-05-07T14:27:06;14.02;;;10.50;;
54909;SDS011;63189;51.240;9.964;2023-05-07T14:29:32;15.30;;;11.02;;
54909;SDS011;63189;51.240;9.964;2023-05-07T14:32:00;15.35;;;11.63;;
54909;SDS011;63189;51.240;9.964;2023-05-07T14:34:25;13.30;;;10.32;;
54909;SDS011;63189;51.240;9.964;2023-05-07T14:36:51;15.27;;;11.57;;
54909;SDS011;63189;51.240;9.964;2023-05-07T14:39:17;16.23;;;10.60;;
54909;SDS011;63189;51.240;9.964;2023-05-07T14:41:42;13.75;;;10.60;;
54909;SDS011;63189;51.240;9.964;2023-05-07T14:44:07;13.52;;;11.02;;
54909;SDS011;63189;51.240;9.964;2023-05-07T14:46:33;18.15;;;13.05;;
54909;SDS011;63189;51.240;9.964;2023-05-07T14:48:58;14.48;;;11.00;;
54909;SDS011;63189;51.240;9.964;2023-05-07T14:51:24;14.57;;;11.73;;